Local Weather Ingen bokad jour idag Sunday 5th of April
Flygplats METAR TAF
Airport METAR TAF
ESSL - Linköping052020Z AUTO 17003KT 9999 NCD 07/04 Q1028= 051930Z 0520/0522 14003KT CAVOK=
ESSP - Norrköping052020Z AUTO 07005KT 8000 FEW078/// 02/02 Q1028= NO VALID TAF PUBLISHED
ESGJ - Jönköping052020Z AUTO 19009KT 9999 NCD 07/01 Q1027= NO VALID TAF PUBLISHED
ESKN - Skavsta052020Z 08003KT CAVOK 05/03 Q1028= 051730Z 0518/0618 16008KT CAVOK=
ESSV - Visby052020Z AUTO 17008KT 9999 NCD 05/02 Q1030= 051730Z 0518/0522 20009KT CAVOK=
ESGG - Göteborg052020Z 16008KT CAVOK 06/M00 Q1027 RWY 21 CLEAR AND DRY 51-100 PCT BA GOOD= 051730Z 0518/0618 21013KT CAVOK BECMG 0518/0521 15007KT=
FLEET STATUS
Flygplan Tid till service Tid till flygstopp Flygtid Landningar
Aircraft Time to service Time to stop Total time Landings
SE-IUD2.3 h7.3 h11 847.7 h23 989 st.
SE-KIT17.0 h22.0 h12 033.0 h23 253 st.
SE-KMH12.5 h17.5 h16 137.5 h60 441 st.
SE-LRL7.9 h17.9 h842.1 h1 570 st.
SE-MEB49.2 h54.2 h1 500.8 h4 612 st.
SE-SIMN/AN/A1 236.6 h199 st.
PPR
Ankomst Avgång Flygplan Namn Bränsle
Arrival Departure Aircraft Name Fuel
5/4 12:305/4 15:00SE-MCCErik PerssonInget
NOTAM
>>> ESSL/LINKOPING/SAAB <<<
+ AERODROME CONTROL TOWER (TWR) HOURS OF SERVICE ARE NOW MON 0500-1500 TUE 0500-1830 WED-THU 0500-1500 FRI-SUN CLSD FROM: 06 APR 2020 00:00 TO: 12 APR 2020 23:59 ES/B0794/20 - AERODROME CONTROL TOWER (TWR) HOURS OF SERVICE ARE NOW THU 0500-1500, FRI 0500-1430, SAT-SUN CLSD FROM: 02 APR 2020 11:49 TO: 05 APR 2020 23:59 ES/B1135/20 - OSTGOTA APPROACH CONTROL SERVICE (APP) HOURS OF SERVICE CHANGED TO 26 MAR-28 MAR 0600-2130. 29 MAR-31 MAY 0500-2030 SERVICE PROVIDED ACCORDING TO ES AIP ENR 2.1 FROM: 26 MAR 2020 08:29 TO: 31 MAY 2020 23:59 ES/B1009/20 CONTINUES ON NEXT PAGE ISSUED: 05 APR 2020 19:55 UTC PAGE: 10(17) - DURING OPENING HOURS OF ATC, PILOTS MAY DECIDE/ATC MAY GIVE PERMISSION TO LET AIRCRAFTS DEPART RWY 29 FROM EAST OF INTERSECTION TWY I. DECLARED INTERMEDIATE DISTANCES RWY 29. TWY I INTERSECTION (EAST OF) 1070 M TAKE-OFF RUN AVAILABLE 1070 M TAKE-OFF DISTANCE AVAILABLE 1070 M ACCELERATE STOP DIST. AVAILABLE FROM: 31 JAN 2020 23:59 TO: 30 APR 2020 23:59 ES/B0282/20 - DURING OPENING HOURS OF ATC, PILOTS MAY DECIDE/ATC MAY GIVE PERMISSION TO LET AIRCRAFTS DEPART RWY 11 FROM INTERSECTION TWY L. DECLARED INTERMEDIATE DISTANCES RWY 11. TWY L INTERSECTION 1420 M TAKE-OFF RUN AVAILABLE 1420 M TAKE-OFF DISTANCE AVAILABLE 1420 M ACCELERATE STOP DIST. AVAILABLE FROM: 31 JAN 2020 00:00 TO: 30 APR 2020 23:59 ES/B0279/20
>>> ESCF/LINKOPING/MALMEN <<<